Time;durP1;ratioP1;P1;durP2;ratioP2;P2;SDS_P1;SDS_P2;PMS_P1;PMS_P2;Temp;Humidity;BMP_temperature;BMP_pressure;BME280_temperature;BME280_humidity;BME280_pressure;Samples;Min_cycle;Max_cycle;Signal;HPM_P1;HPM_P2
2021/12/15 00:01:59;;;;;;;36.75;20.92;;;10.10;99.90;;;;;;5072630;28;20036;-79
2021/12/15 00:04:25;;;;;;;46.72;22.30;;;10.10;99.90;;;;;;5073066;28;20028;-79
2021/12/15 00:06:51;;;;;;;48.28;23.00;;;10.10;99.90;;;;;;5072918;28;20036;-78
2021/12/15 00:09:16;;;;;;;53.25;23.38;;;10.10;99.90;;;;;;5089737;28;20044;-79
2021/12/15 00:11:42;;;;;;;46.08;21.77;;;10.10;99.90;;;;;;5072796;28;20064;-79
2021/12/15 00:14:12;;;;;;;46.60;21.63;;;10.10;99.90;;;;;;5072696;28;20348;-79
2021/12/15 00:16:39;;;;;;;39.25;21.73;;;10.10;99.90;;;;;;5072986;28;20067;-79
2021/12/15 00:19:05;;;;;;;43.88;21.17;;;10.10;99.90;;;;;;5089498;28;20045;-79
2021/12/15 00:21:31;;;;;;;48.92;22.95;;;10.10;99.90;;;;;;5072848;28;20139;-79
2021/12/15 00:23:57;;;;;;;47.88;22.45;;;10.10;99.90;;;;;;5089165;28;20076;-78
2021/12/15 00:26:24;;;;;;;57.28;23.60;;;10.10;99.90;;;;;;5089290;28;20040;-79
2021/12/15 00:28:50;;;;;;;43.85;22.20;;;10.10;99.90;;;;;;5072170;28;20477;-79
2021/12/15 00:31:16;;;;;;;43.85;22.25;;;10.10;99.90;;;;;;5071086;28;20045;-78
2021/12/15 00:33:43;;;;;;;45.25;20.60;;;10.10;99.90;;;;;;5073059;28;20082;-79
2021/12/15 00:36:09;;;;;;;46.45;22.45;;;10.10;99.90;;;;;;5072246;28;20072;-79
2021/12/15 00:38:34;;;;;;;49.25;21.77;;;10.10;99.90;;;;;;5088131;28;20090;-79
2021/12/15 00:41:01;;;;;;;39.55;20.92;;;10.10;99.90;;;;;;5072168;28;20045;-79
2021/12/15 00:43:27;;;;;;;46.50;22.00;;;10.10;99.90;;;;;;5071858;28;20040;-79
2021/12/15 00:45:53;;;;;;;47.55;21.67;;;10.10;99.90;;;;;;5070663;28;20044;-79
2021/12/15 00:48:19;;;;;;;46.40;21.50;;;10.10;99.90;;;;;;5071751;28;20048;-79
2021/12/15 00:50:46;;;;;;;45.45;21.90;;;10.10;99.90;;;;;;5054962;28;20047;-78
2021/12/15 00:53:12;;;;;;;36.75;20.85;;;10.10;99.90;;;;;;5071357;28;20032;-78
2021/12/15 00:55:39;;;;;;;44.58;22.58;;;10.10;99.90;;;;;;5071362;28;20037;-78
2021/12/15 00:58:06;;;;;;;39.72;22.52;;;10.10;99.90;;;;;;5071447;28;20067;-78
2021/12/15 01:00:36;;;;;;;48.10;23.30;;;10.10;99.90;;;;;;5071424;28;20517;-78
2021/12/15 01:03:03;;;;;;;46.10;22.95;;;10.10;99.90;;;;;;5070974;28;20063;-78
2021/12/15 01:05:34;;;;;;;50.00;23.02;;;10.10;99.90;;;;;;5071084;28;20052;-78
2021/12/15 01:08:01;;;;;;;45.28;22.63;;;10.10;99.90;;;;;;5071131;28;20040;-78
2021/12/15 01:10:40;;;;;;;40.75;22.00;;;10.10;99.90;;;;;;5054492;28;20089;-78
2021/12/15 01:21:07;;;;;;;42.47;22.73;;;10.20;99.90;;;;;;5070886;28;20058;-78
2021/12/15 01:23:33;;;;;;;42.30;22.52;;;10.20;99.90;;;;;;5070705;28;20123;-78
2021/12/15 01:26:00;;;;;;;46.67;23.73;;;10.20;99.90;;;;;;5070999;28;20094;-78
2021/12/15 01:28:26;;;;;;;37.70;21.83;;;10.20;99.90;;;;;;5070896;28;20045;-78
2021/12/15 01:30:54;;;;;;;41.63;22.85;;;10.20;99.90;;;;;;5070652;28;20051;-78
2021/12/15 01:33:21;;;;;;;41.78;23.25;;;10.20;99.90;;;;;;5070292;28;20044;-78
2021/12/15 01:35:49;;;;;;;44.47;22.42;;;10.20;99.90;;;;;;5070729;28;20040;-78
2021/12/15 01:38:16;;;;;;;44.38;23.23;;;10.20;99.90;;;;;;5054023;28;20036;-78
2021/12/15 01:40:44;;;;;;;45.95;23.60;;;10.20;99.90;;;;;;5071092;28;20425;-79
2021/12/15 01:43:25;;;;;;;42.90;24.65;;;10.20;99.90;;;;;;5053832;28;20067;-78
2021/12/15 01:48:41;;;;;;;44.67;23.00;;;10.20;99.90;;;;;;5070523;28;20049;-78
2021/12/15 01:51:10;;;;;;;42.42;24.17;;;10.20;99.90;;;;;;5053656;28;20378;-79
2021/12/15 01:53:36;;;;;;;44.70;24.55;;;10.20;99.90;;;;;;5070618;28;20186;-78
2021/12/15 01:56:04;;;;;;;45.55;23.25;;;10.20;99.90;;;;;;5070633;28;20086;-78
2021/12/15 01:58:30;;;;;;;43.50;23.88;;;10.20;99.90;;;;;;5070242;28;20043;-78
2021/12/15 02:01:00;;;;;;;43.25;24.05;;;10.20;99.90;;;;;;5068993;28;20040;-78
2021/12/15 02:03:27;;;;;;;46.15;24.65;;;10.20;99.90;;;;;;5069709;28;20125;-78
2021/12/15 02:05:54;;;;;;;42.47;24.77;;;10.30;99.90;;;;;;5070232;28;20055;-78
2021/12/15 02:08:20;;;;;;;46.35;24.75;;;10.30;99.90;;;;;;5069568;28;20138;-78
2021/12/15 02:10:46;;;;;;;42.63;23.88;;;10.30;99.90;;;;;;5070070;28;20044;-78
2021/12/15 02:13:16;;;;;;;46.50;24.35;;;10.30;99.90;;;;;;5070316;28;20044;-78
2021/12/15 02:15:45;;;;;;;40.60;23.48;;;10.30;99.90;;;;;;5070533;28;20058;-78
2021/12/15 02:18:15;;;;;;;40.45;24.02;;;10.30;99.90;;;;;;5070299;28;20044;-78
2021/12/15 02:20:54;;;;;;;47.67;24.25;;;10.20;99.90;;;;;;5070258;28;20044;-77
2021/12/15 02:23:27;;;;;;;44.28;24.42;;;10.30;99.90;;;;;;5069915;28;20032;-78
2021/12/15 02:25:53;;;;;;;43.63;24.70;;;10.30;99.90;;;;;;5069804;28;20536;-78
2021/12/15 02:28:19;;;;;;;44.38;24.58;;;10.30;99.90;;;;;;5070509;28;20080;-79
2021/12/15 02:30:53;;;;;;;46.67;25.50;;;10.30;99.90;;;;;;5070217;28;20067;-78
2021/12/15 02:38:38;;;;;;;41.22;23.80;;;10.30;99.90;;;;;;5070233;28;20563;-78
2021/12/15 02:41:09;;;;;;;46.15;24.73;;;10.30;99.90;;;;;;5070005;28;20044;-78
2021/12/15 02:43:36;;;;;;;43.33;24.45;;;10.30;99.90;;;;;;5070147;28;20076;-78
2021/12/15 02:46:02;;;;;;;40.63;25.23;;;10.30;99.90;;;;;;5052769;28;20040;-78
2021/12/15 02:48:28;;;;;;;45.30;24.27;;;10.30;99.90;;;;;;5069828;28;20036;-79
2021/12/15 02:50:54;;;;;;;41.45;23.73;;;10.30;99.90;;;;;;5069845;28;20393;-78
2021/12/15 02:53:20;;;;;;;45.53;24.85;;;10.30;99.90;;;;;;5069793;28;20396;-78
2021/12/15 02:55:45;;;;;;;47.35;23.95;;;10.30;99.90;;;;;;5069734;28;20117;-78
2021/12/15 02:58:11;;;;;;;43.63;24.98;;;10.30;99.90;;;;;;5069648;28;20120;-78
2021/12/15 03:00:50;;;;;;;44.53;25.88;;;10.30;99.90;;;;;;5069459;28;20044;-78
2021/12/15 03:05:51;;;;;;;45.17;26.30;;;10.30;99.90;;;;;;5069637;28;20040;-78
2021/12/15 03:08:47;;;;;;;44.85;25.67;;;10.30;99.90;;;;;;5070079;28;20479;-78
2021/12/15 03:16:31;;;;;;;46.00;26.77;;;10.30;99.90;;;;;;5069758;28;20131;-78
2021/12/15 03:18:58;;;;;;;46.55;26.13;;;10.30;99.90;;;;;;5069878;28;20075;-79
2021/12/15 03:21:26;;;;;;;46.17;26.42;;;10.30;99.90;;;;;;5072701;28;20040;-79
2021/12/15 03:24:00;;;;;;;44.28;26.33;;;10.30;99.90;;;;;;5056326;28;20085;-78
2021/12/15 03:26:34;;;;;;;50.42;25.13;;;10.30;99.90;;;;;;5073536;28;20097;-78
2021/12/15 03:39:24;;;;;;;50.08;27.90;;;10.30;99.90;;;;;;5073114;28;20102;-78
2021/12/15 03:41:59;;;;;;;44.97;26.50;;;10.40;99.90;;;;;;5072730;28;20094;-78
2021/12/15 03:44:25;;;;;;;52.50;27.05;;;10.40;99.90;;;;;;5071945;28;20044;-78
2021/12/15 03:46:51;;;;;;;47.15;27.80;;;10.40;99.90;;;;;;5056205;28;20477;-77
2021/12/15 03:49:18;;;;;;;42.58;27.05;;;10.40;99.90;;;;;;5072694;28;20056;-78
2021/12/15 03:51:43;;;;;;;43.88;25.15;;;10.40;99.90;;;;;;5072771;28;20043;-78
2021/12/15 03:54:10;;;;;;;48.88;27.25;;;10.30;99.90;;;;;;5055820;28;20037;-78
2021/12/15 03:56:39;;;;;;;45.45;26.55;;;10.30;99.90;;;;;;5072552;28;20075;-78
2021/12/15 03:59:05;;;;;;;46.97;27.58;;;10.30;99.90;;;;;;5072461;28;20501;-78
2021/12/15 04:01:31;;;;;;;43.40;26.08;;;10.30;99.90;;;;;;5072591;28;20048;-79
2021/12/15 04:03:56;;;;;;;48.45;27.40;;;10.40;99.90;;;;;;5072595;28;20036;-79
2021/12/15 04:06:26;;;;;;;45.03;26.25;;;10.30;99.90;;;;;;5072563;28;20049;-79
2021/12/15 04:08:53;;;;;;;41.42;25.70;;;10.30;99.90;;;;;;5056231;28;20036;-78
2021/12/15 04:11:21;;;;;;;44.70;25.30;;;10.30;99.90;;;;;;5072458;28;20132;-79
2021/12/15 04:13:47;;;;;;;44.75;25.73;;;10.30;99.90;;;;;;5072471;28;20447;-78
2021/12/15 04:16:37;;;;;;;38.92;25.70;;;10.30;99.90;;;;;;5072295;28;20043;-79
2021/12/15 04:19:05;;;;;;;47.97;26.60;;;10.20;99.90;;;;;;5072567;28;20070;-78
2021/12/15 04:21:30;;;;;;;46.08;26.83;;;10.30;99.90;;;;;;5072488;28;20036;-79
2021/12/15 04:23:58;;;;;;;49.08;26.42;;;10.30;99.90;;;;;;5072104;28;20047;-78
2021/12/15 04:26:24;;;;;;;47.08;26.05;;;10.30;99.90;;;;;;5072492;28;20086;-78
2021/12/15 04:28:50;;;;;;;44.50;26.27;;;10.30;99.90;;;;;;5072381;28;20040;-78
2021/12/15 04:31:22;;;;;;;46.83;25.60;;;10.30;99.90;;;;;;5071857;28;20086;-78
2021/12/15 04:33:51;;;;;;;44.97;25.40;;;10.30;99.90;;;;;;5072147;28;20037;-79
2021/12/15 04:36:19;;;;;;;43.88;24.25;;;10.30;99.90;;;;;;5072010;28;20071;-78
2021/12/15 04:38:45;;;;;;;43.55;24.50;;;10.30;99.90;;;;;;5072440;28;20048;-78
2021/12/15 04:41:16;;;;;;;42.60;23.73;;;10.30;99.90;;;;;;5072088;28;20054;-78
2021/12/15 04:43:43;;;;;;;46.22;25.45;;;10.30;99.90;;;;;;5071796;28;20151;-78
2021/12/15 04:46:10;;;;;;;47.45;26.65;;;10.20;99.90;;;;;;5055381;28;20119;-78
2021/12/15 04:48:37;;;;;;;47.22;26.90;;;10.20;99.90;;;;;;5071809;28;20497;-78
2021/12/15 04:51:04;;;;;;;52.47;26.73;;;10.30;99.90;;;;;;5071521;28;20046;-79
2021/12/15 04:53:30;;;;;;;52.08;25.70;;;10.30;99.90;;;;;;5072048;28;20036;-78
2021/12/15 04:55:55;;;;;;;43.50;24.98;;;10.30;99.90;;;;;;5071458;28;20036;-79
2021/12/15 04:58:21;;;;;;;48.20;26.70;;;10.30;99.90;;;;;;5071707;28;20110;-78
2021/12/15 05:00:55;;;;;;;47.65;25.98;;;10.20;99.90;;;;;;5071789;28;20472;-79
2021/12/15 05:03:22;;;;;;;54.72;28.30;;;10.30;99.90;;;;;;5071574;28;20439;-79
2021/12/15 05:05:49;;;;;;;53.60;28.23;;;10.20;99.90;;;;;;5055029;28;20040;-79
2021/12/15 05:08:14;;;;;;;50.70;25.80;;;10.20;99.90;;;;;;5071666;28;20044;-79
2021/12/15 05:10:41;;;;;;;52.83;27.23;;;10.20;99.90;;;;;;5071742;28;20051;-78
2021/12/15 05:13:07;;;;;;;47.90;26.92;;;10.20;99.90;;;;;;5071162;28;20595;-79
2021/12/15 05:15:35;;;;;;;46.90;26.80;;;10.20;99.90;;;;;;5071360;28;20044;-79
2021/12/15 05:18:01;;;;;;;46.22;25.98;;;10.20;99.90;;;;;;5071193;28;20040;-79
2021/12/15 05:20:27;;;;;;;43.85;25.75;;;10.20;99.90;;;;;;5071193;28;20047;-79
2021/12/15 05:22:54;;;;;;;50.00;25.20;;;10.20;99.90;;;;;;5054428;28;20037;-79
2021/12/15 05:25:20;;;;;;;50.40;26.85;;;10.20;99.90;;;;;;5071309;28;20374;-79
2021/12/15 05:27:45;;;;;;;50.25;26.48;;;10.20;99.90;;;;;;5071112;28;20040;-79
2021/12/15 05:30:14;;;;;;;58.17;28.83;;;10.20;99.90;;;;;;5071227;28;20044;-79
2021/12/15 05:32:40;;;;;;;48.55;26.88;;;10.20;99.90;;;;;;5071086;28;20059;-79
2021/12/15 05:35:06;;;;;;;55.72;27.63;;;10.20;99.90;;;;;;5071013;28;20036;-79
2021/12/15 05:37:32;;;;;;;48.13;26.20;;;10.20;99.90;;;;;;5070981;28;20140;-79
2021/12/15 05:39:59;;;;;;;50.50;25.10;;;10.20;99.90;;;;;;5071232;28;20060;-79
2021/12/15 05:42:26;;;;;;;53.63;25.45;;;10.20;99.90;;;;;;5070729;28;20047;-79
2021/12/15 05:44:53;;;;;;;45.83;26.15;;;10.20;99.90;;;;;;5070188;28;20049;-78
2021/12/15 05:47:20;;;;;;;46.08;25.75;;;10.30;99.90;;;;;;5071148;28;20456;-79
2021/12/15 05:49:47;;;;;;;49.42;27.33;;;10.20;99.90;;;;;;5070719;28;20033;-79
2021/12/15 05:52:13;;;;;;;47.03;26.20;;;10.30;99.90;;;;;;5070921;28;20413;-78
2021/12/15 05:54:38;;;;;;;44.25;23.90;;;10.30;99.90;;;;;;5071098;28;20036;-79
2021/12/15 05:57:05;;;;;;;42.80;24.30;;;10.30;99.90;;;;;;5070680;28;20437;-79
2021/12/15 05:59:30;;;;;;;45.70;24.35;;;10.30;99.90;;;;;;5071221;28;20036;-79
2021/12/15 06:01:56;;;;;;;45.40;26.67;;;10.30;99.90;;;;;;5070806;28;20044;-79
2021/12/15 06:04:22;;;;;;;47.88;26.42;;;10.30;99.90;;;;;;5070588;28;20044;-79
2021/12/15 06:06:48;;;;;;;50.70;25.88;;;10.30;99.90;;;;;;5070566;28;20393;-79
2021/12/15 06:09:14;;;;;;;44.17;25.25;;;10.30;99.90;;;;;;5053923;28;20482;-79
2021/12/15 06:11:41;;;;;;;45.72;26.58;;;10.30;99.90;;;;;;5053704;28;20102;-79
2021/12/15 06:14:07;;;;;;;52.72;26.98;;;10.30;99.90;;;;;;5070495;28;20036;-79
2021/12/15 06:16:34;;;;;;;46.15;25.48;;;10.30;99.90;;;;;;5070329;28;20043;-78
2021/12/15 06:19:00;;;;;;;49.75;26.33;;;10.30;99.90;;;;;;5070398;28;20544;-79
2021/12/15 06:21:26;;;;;;;54.05;25.30;;;10.30;99.90;;;;;;5070711;28;20405;-78
2021/12/15 06:23:52;;;;;;;46.53;24.92;;;10.30;99.90;;;;;;5070226;28;20123;-79
2021/12/15 06:26:19;;;;;;;49.28;26.50;;;10.30;99.90;;;;;;5070331;28;20040;-79
2021/12/15 06:28:46;;;;;;;46.00;25.00;;;10.30;99.90;;;;;;5070439;28;20462;-79
2021/12/15 06:31:14;;;;;;;47.45;25.77;;;10.30;99.90;;;;;;5070285;28;20075;-79
2021/12/15 06:33:40;;;;;;;43.83;24.20;;;10.30;99.90;;;;;;5070132;28;20115;-79
2021/12/15 06:36:07;;;;;;;45.67;24.73;;;10.30;99.90;;;;;;5070701;28;20451;-79
2021/12/15 06:38:39;;;;;;;46.97;24.95;;;10.30;99.90;;;;;;5070782;28;20382;-79
2021/12/15 06:41:07;;;;;;;46.20;25.27;;;10.30;99.90;;;;;;5070238;28;20093;-79
2021/12/15 06:43:35;;;;;;;45.97;24.42;;;10.30;99.90;;;;;;5070221;28;20041;-78
2021/12/15 06:46:35;;;;;;;45.58;24.38;;;10.30;99.90;;;;;;5070434;28;20171;-78
2021/12/15 06:59:54;;;;;;;46.70;24.63;;;10.30;99.90;;;;;;5074180;28;20098;-79
2021/12/15 07:02:20;;;;;;;43.70;24.30;;;10.30;99.90;;;;;;5073640;28;20036;-79
2021/12/15 07:04:46;;;;;;;45.95;23.33;;;10.30;99.90;;;;;;5057654;28;20036;-79
2021/12/15 07:07:12;;;;;;;40.88;24.08;;;10.30;99.90;;;;;;5073774;28;20040;-79
2021/12/15 07:09:38;;;;;;;47.05;24.77;;;10.30;99.90;;;;;;5074863;28;20082;-79
2021/12/15 07:12:05;;;;;;;36.92;22.50;;;10.30;99.90;;;;;;5073683;28;20045;-79
2021/12/15 07:14:31;;;;;;;44.75;23.60;;;10.30;99.90;;;;;;5057646;28;20037;-80
2021/12/15 07:16:58;;;;;;;39.90;22.45;;;10.30;99.90;;;;;;5073964;28;20441;-80
2021/12/15 07:22:07;;;;;;;43.15;24.10;;;10.30;99.90;;;;;;5073692;28;20041;-79
2021/12/15 07:24:34;;;;;;;36.22;21.17;;;10.30;99.90;;;;;;5073889;28;20049;-80
2021/12/15 07:27:05;;;;;;;38.22;22.55;;;10.30;99.90;;;;;;5073581;28;20489;-79
2021/12/15 07:29:31;;;;;;;37.08;21.80;;;10.30;99.90;;;;;;5073678;28;20044;-79
2021/12/15 07:31:58;;;;;;;42.42;23.67;;;10.30;99.90;;;;;;5073273;28;20076;-79
2021/12/15 07:34:24;;;;;;;41.20;22.55;;;10.30;99.90;;;;;;5073669;28;20037;-79
2021/12/15 07:36:50;;;;;;;44.10;22.75;;;10.30;99.90;;;;;;5073705;28;20041;-79
2021/12/15 07:39:15;;;;;;;36.78;21.55;;;10.30;99.90;;;;;;5073124;28;20032;-79
2021/12/15 07:41:50;;;;;;;39.33;21.80;;;10.30;99.90;;;;;;5073538;28;20082;-78
2021/12/15 07:44:16;;;;;;;41.92;20.60;;;10.30;99.90;;;;;;5073092;28;20047;-79
2021/12/15 07:46:47;;;;;;;33.70;20.17;;;10.30;99.90;;;;;;5057592;28;20048;-79
2021/12/15 07:49:13;;;;;;;37.42;20.50;;;10.30;99.90;;;;;;5073380;28;20098;-79
2021/12/15 07:51:41;;;;;;;35.83;20.75;;;10.30;99.90;;;;;;5072787;28;20083;-78
2021/12/15 07:54:07;;;;;;;40.13;20.95;;;10.30;99.90;;;;;;5072964;28;20040;-79
2021/12/15 07:56:32;;;;;;;36.33;20.98;;;10.30;99.90;;;;;;5073186;28;20043;-79
2021/12/15 07:58:58;;;;;;;41.10;20.85;;;10.30;99.90;;;;;;5073123;28;20047;-79
2021/12/15 08:01:24;;;;;;;35.28;18.23;;;10.30;99.90;;;;;;5073306;28;20047;-79
2021/12/15 08:03:54;;;;;;;38.05;18.55;;;10.30;99.90;;;;;;5072535;28;20047;-79
2021/12/15 08:06:21;;;;;;;30.38;17.55;;;10.30;99.90;;;;;;5070847;28;20306;-79
2021/12/15 08:08:47;;;;;;;30.73;16.08;;;10.30;99.90;;;;;;5070949;28;20086;-79
2021/12/15 08:11:13;;;;;;;30.17;16.80;;;10.30;99.90;;;;;;5071293;28;20412;-79
2021/12/15 08:13:38;;;;;;;30.45;17.08;;;10.30;99.90;;;;;;5072520;28;20044;-79
2021/12/15 08:16:05;;;;;;;27.98;16.00;;;10.30;99.90;;;;;;5072450;28;20476;-79
2021/12/15 08:18:30;;;;;;;28.60;15.70;;;10.30;99.90;;;;;;5056470;28;20029;-80
2021/12/15 08:20:57;;;;;;;32.28;15.60;;;10.30;99.90;;;;;;5072949;28;20405;-79
2021/12/15 08:23:23;;;;;;;28.63;16.20;;;10.30;99.90;;;;;;5073414;28;20397;-79
2021/12/15 08:25:50;;;;;;;32.15;16.92;;;10.30;99.90;;;;;;5073460;28;20131;-79
2021/12/15 08:28:17;;;;;;;29.90;15.60;;;10.30;99.90;;;;;;5073005;28;20048;-80
2021/12/15 08:30:44;;;;;;;32.60;16.85;;;10.30;99.90;;;;;;5056354;28;20083;-80
2021/12/15 08:33:12;;;;;;;27.70;14.98;;;10.30;99.90;;;;;;5055425;28;20036;-80
2021/12/15 08:35:59;;;;;;;32.08;16.73;;;10.30;99.90;;;;;;5072038;28;20040;-80
2021/12/15 08:38:32;;;;;;;31.67;15.95;;;10.30;99.90;;;;;;5072713;28;20127;-80
2021/12/15 08:40:58;;;;;;;38.53;18.13;;;10.30;99.90;;;;;;5072216;28;20048;-80
2021/12/15 08:43:25;;;;;;;35.05;16.77;;;10.30;99.90;;;;;;5055735;28;20036;-80
2021/12/15 08:46:02;;;;;;;33.60;17.20;;;10.30;99.90;;;;;;5055508;28;20497;-80
2021/12/15 08:48:30;;;;;;;31.77;16.20;;;10.30;99.90;;;;;;5055115;28;20576;-80
2021/12/15 08:50:55;;;;;;;31.25;16.02;;;10.30;99.90;;;;;;5051646;28;20037;-80
2021/12/15 08:53:22;;;;;;;28.23;15.88;;;10.30;99.90;;;;;;5085209;28;20040;-80
2021/12/15 08:55:49;;;;;;;31.60;16.98;;;10.30;99.90;;;;;;5051818;28;20044;-80
2021/12/15 08:58:17;;;;;;;26.67;14.95;;;10.30;99.90;;;;;;5051202;28;20517;-80
2021/12/15 09:00:45;;;;;;;29.08;16.08;;;10.30;99.90;;;;;;5052118;28;20095;-80
2021/12/15 09:03:12;;;;;;;31.73;16.75;;;10.30;99.90;;;;;;5051500;28;20040;-79
2021/12/15 09:05:39;;;;;;;32.03;15.50;;;10.40;99.90;;;;;;5084973;28;20055;-80
2021/12/15 09:08:05;;;;;;;29.13;15.48;;;10.40;99.90;;;;;;5035039;28;20041;-80
2021/12/15 09:10:33;;;;;;;28.08;15.60;;;10.30;99.90;;;;;;5034470;28;20140;-80
2021/12/15 09:13:00;;;;;;;30.10;15.95;;;10.30;99.90;;;;;;5051014;28;20037;-80
2021/12/15 09:15:26;;;;;;;30.65;16.85;;;10.40;99.90;;;;;;5083740;28;20041;-80
2021/12/15 09:17:52;;;;;;;30.08;16.38;;;10.40;99.90;;;;;;5033847;28;20040;-79
2021/12/15 09:20:23;;;;;;;30.02;15.93;;;10.40;99.90;;;;;;5050645;28;20063;-80
2021/12/15 09:22:49;;;;;;;31.42;15.85;;;10.40;99.90;;;;;;5050974;28;20041;-80
2021/12/15 09:25:15;;;;;;;31.88;17.13;;;10.30;99.90;;;;;;5085384;28;20050;-80
2021/12/15 09:27:43;;;;;;;30.00;16.30;;;10.40;99.90;;;;;;5051894;28;20052;-80
2021/12/15 09:30:12;;;;;;;26.85;15.70;;;10.40;99.90;;;;;;5052021;28;20509;-80
2021/12/15 09:32:38;;;;;;;27.85;15.07;;;10.30;99.90;;;;;;5034750;28;20112;-80
2021/12/15 09:35:06;;;;;;;25.70;14.90;;;10.40;99.90;;;;;;5035187;28;20095;-80
2021/12/15 09:37:32;;;;;;;25.08;14.90;;;10.40;99.90;;;;;;5085348;28;20033;-80
2021/12/15 09:39:58;;;;;;;31.13;14.75;;;10.50;99.90;;;;;;5034958;28;20037;-80
2021/12/15 09:42:31;;;;;;;25.10;14.80;;;10.60;99.90;;;;;;5051851;28;20037;-80
2021/12/15 09:45:17;;;;;;;25.53;13.37;;;10.70;99.90;;;;;;5051643;28;20040;-80
2021/12/15 09:48:02;;;;;;;20.50;12.35;;;10.70;99.90;;;;;;5085216;28;20127;-79
2021/12/15 09:56:25;;;;;;;24.80;13.32;;;10.90;99.90;;;;;;5085186;28;20045;-80
2021/12/15 10:18:06;;;;;;;25.77;14.10;;;10.70;99.90;;;;;;5085662;28;20128;-79
2021/12/15 10:20:36;;;;;;;24.08;13.52;;;10.70;99.90;;;;;;5035015;28;20045;-79
2021/12/15 10:23:05;;;;;;;24.08;13.77;;;10.60;99.90;;;;;;5050985;28;20083;-80
2021/12/15 10:25:37;;;;;;;23.48;13.48;;;10.60;99.90;;;;;;5050796;28;20048;-79
2021/12/15 10:28:08;;;;;;;19.85;12.20;;;10.70;99.90;;;;;;5051090;28;20060;-80
2021/12/15 10:30:40;;;;;;;24.98;13.50;;;10.70;99.90;;;;;;5052845;28;20041;-79
2021/12/15 10:33:19;;;;;;;23.35;12.48;;;10.70;99.90;;;;;;5088749;28;20111;-79
2021/12/15 10:35:53;;;;;;;26.45;12.52;;;10.70;99.90;;;;;;5055436;28;20041;-80
2021/12/15 10:38:27;;;;;;;22.83;13.05;;;10.70;99.90;;;;;;5055051;28;20045;-80
2021/12/15 10:41:01;;;;;;;23.65;12.45;;;10.70;99.90;;;;;;5055116;28;20045;-80
2021/12/15 10:43:40;;;;;;;19.45;11.30;;;10.70;99.90;;;;;;5088917;28;20052;-80
2021/12/15 10:46:13;;;;;;;25.10;11.88;;;10.70;99.90;;;;;;5088562;28;20049;-80
2021/12/15 10:48:46;;;;;;;20.77;11.63;;;10.70;99.90;;;;;;5088508;28;20054;-80
2021/12/15 10:51:25;;;;;;;24.83;12.35;;;10.70;99.90;;;;;;5038241;28;20041;-79
2021/12/15 10:53:53;;;;;;;22.00;12.98;;;10.70;99.90;;;;;;5088570;28;20048;-80
2021/12/15 10:56:23;;;;;;;21.13;12.20;;;10.70;99.90;;;;;;5055417;28;20048;-79
2021/12/15 10:58:53;;;;;;;18.83;11.88;;;10.70;99.90;;;;;;5054814;28;20098;-80
2021/12/15 11:01:40;;;;;;;22.30;11.90;;;10.70;99.90;;;;;;5056326;28;20103;-80
2021/12/15 11:04:24;;;;;;;20.17;11.45;;;10.80;99.90;;;;;;5089167;28;20049;-80
2021/12/15 11:07:20;;;;;;;18.83;10.20;;;10.80;99.90;;;;;;5088644;28;20099;-81
2021/12/15 11:09:51;;;;;;;18.65;10.60;;;10.80;99.90;;;;;;5054453;28;20049;-80
2021/12/15 11:12:20;;;;;;;22.00;10.85;;;10.90;99.90;;;;;;5054033;28;20033;-80
2021/12/15 11:14:50;;;;;;;20.98;9.95;;;10.90;99.90;;;;;;5088019;28;20037;-80
2021/12/15 11:17:17;;;;;;;22.50;10.70;;;10.90;99.90;;;;;;5054415;28;20080;-80
2021/12/15 11:20:07;;;;;;;19.88;10.50;;;10.90;99.90;;;;;;5088075;28;20041;-79
2021/12/15 11:22:55;;;;;;;18.98;10.30;;;10.90;99.90;;;;;;5088561;28;20041;-79
2021/12/15 11:25:38;;;;;;;18.52;9.90;;;11.00;99.90;;;;;;5044450;28;20049;-80
2021/12/15 11:28:29;;;;;;;19.77;10.18;;;11.00;99.90;;;;;;5088725;28;20112;-79
2021/12/15 11:31:00;;;;;;;17.25;9.95;;;11.00;99.90;;;;;;5037402;28;20047;-80
2021/12/15 11:33:39;;;;;;;18.80;10.38;;;11.00;99.90;;;;;;5053416;28;20041;-80
2021/12/15 11:36:17;;;;;;;18.98;9.57;;;11.10;99.90;;;;;;5087603;28;20128;-80
2021/12/15 11:38:49;;;;;;;21.90;10.13;;;11.10;99.90;;;;;;5070509;28;20044;-80
2021/12/15 11:41:24;;;;;;;17.98;10.05;;;11.10;99.90;;;;;;5053829;28;20067;-80
2021/12/15 11:43:59;;;;;;;14.35;9.60;;;11.10;99.90;;;;;;5053893;28;20044;-80
2021/12/15 11:46:40;;;;;;;18.92;9.88;;;11.10;99.90;;;;;;5087623;28;20037;-79
2021/12/15 11:49:13;;;;;;;15.90;8.75;;;11.10;99.90;;;;;;5054225;28;20041;-80
2021/12/15 11:52:01;;;;;;;16.02;9.30;;;11.10;99.90;;;;;;5087138;28;20052;-80
2021/12/15 11:54:33;;;;;;;16.40;9.40;;;11.10;99.90;;;;;;5053570;28;20462;-79
2021/12/15 11:57:00;;;;;;;15.55;8.48;;;11.10;99.90;;;;;;5086196;28;20072;-80
2021/12/15 11:59:27;;;;;;;16.33;7.55;;;11.10;99.90;;;;;;5054059;28;20377;-79
2021/12/15 12:02:13;;;;;;;12.50;6.72;;;11.10;99.90;;;;;;5053585;28;20084;-80
2021/12/15 12:04:52;;;;;;;12.05;6.25;;;11.10;99.90;;;;;;5087225;28;20087;-80
2021/12/15 12:07:19;;;;;;;11.77;5.47;;;11.10;99.90;;;;;;5087552;28;20106;-80
2021/12/15 12:09:56;;;;;;;11.32;5.15;;;11.10;99.90;;;;;;5053769;28;20052;-80
2021/12/15 12:12:27;;;;;;;8.88;4.20;;;11.10;99.90;;;;;;5038588;28;20048;-80
2021/12/15 12:14:53;;;;;;;9.77;4.32;;;11.10;99.90;;;;;;5036878;28;20513;-80
2021/12/15 12:17:23;;;;;;;10.85;4.13;;;11.10;99.90;;;;;;5052231;28;20076;-80
2021/12/15 12:19:55;;;;;;;9.23;4.60;;;11.10;99.90;;;;;;5053639;28;20106;-80
2021/12/15 12:22:22;;;;;;;11.10;4.40;;;11.00;99.90;;;;;;5052923;28;20064;-79
2021/12/15 12:24:52;;;;;;;9.52;4.57;;;10.90;99.90;;;;;;5087776;28;20165;-79
2021/12/15 12:27:19;;;;;;;9.40;4.50;;;10.90;99.90;;;;;;5053080;28;20558;-80
2021/12/15 12:29:45;;;;;;;10.07;4.47;;;10.80;99.90;;;;;;5053943;28;20042;-75
2021/12/15 12:32:11;;;;;;;10.70;4.88;;;10.80;99.90;;;;;;5052209;28;20037;-80
2021/12/15 12:34:40;;;;;;;11.48;4.30;;;10.80;99.90;;;;;;5086733;28;20437;-80
2021/12/15 12:37:06;;;;;;;9.90;3.53;;;10.80;99.90;;;;;;5086683;28;20045;-80
2021/12/15 12:39:35;;;;;;;9.30;3.78;;;10.80;99.90;;;;;;5052598;28;20466;-79
2021/12/15 12:42:01;;;;;;;10.65;4.47;;;10.70;99.90;;;;;;5085979;28;20052;-80
2021/12/15 12:44:38;;;;;;;8.98;4.03;;;10.70;99.90;;;;;;5053571;28;20524;-79
2021/12/15 12:47:19;;;;;;;13.60;4.38;;;10.70;99.90;;;;;;5052359;28;20080;-80
2021/12/15 13:00:59;;;;;;;9.98;3.33;;;10.70;99.90;;;;;;5083335;28;20383;-80
2021/12/15 13:03:25;;;;;;;9.40;3.25;;;11.00;99.90;;;;;;5051430;28;20486;-80
2021/12/15 13:05:56;;;;;;;5.35;3.08;;;11.00;99.90;;;;;;5085487;28;20045;-80
2021/12/15 13:08:57;;;;;;;6.38;2.67;;;11.00;99.90;;;;;;5035710;28;20386;-80
2021/12/15 13:11:39;;;;;;;5.38;2.65;;;11.10;99.90;;;;;;5050750;28;20091;-80
2021/12/15 13:14:15;;;;;;;6.47;2.83;;;11.20;99.90;;;;;;5052124;28;20041;-80
2021/12/15 13:16:48;;;;;;;11.00;3.25;;;11.30;99.90;;;;;;5085335;28;20055;-80
2021/12/15 13:19:18;;;;;;;6.20;2.60;;;11.30;99.90;;;;;;5052237;28;20041;-79
2021/12/15 13:30:47;;;;;;;7.32;2.55;;;11.50;99.90;;;;;;5085113;28;20045;-80
2021/12/15 13:33:40;;;;;;;7.53;2.70;;;11.10;99.90;;;;;;5085188;28;20068;-79
2021/12/15 13:36:19;;;;;;;6.10;2.22;;;10.80;99.90;;;;;;5048961;28;20057;-80
2021/12/15 13:38:47;;;;;;;6.47;2.28;;;10.50;99.90;;;;;;5065100;28;20123;-79
2021/12/15 13:44:05;;;;;;;5.80;2.50;;;10.10;99.90;;;;;;5084586;28;20049;-80
2021/12/15 13:46:38;;;;;;;8.07;2.50;;;10.00;99.90;;;;;;5034503;28;20123;-80
2021/12/15 13:49:36;;;;;;;6.80;2.65;;;9.90;99.90;;;;;;5051213;28;20083;-79
2021/12/15 13:52:11;;;;;;;7.18;2.33;;;9.80;99.90;;;;;;5046903;28;20052;-79
2021/12/15 13:54:36;;;;;;;10.98;2.80;;;9.70;99.90;;;;;;5069455;28;20094;-80
2021/12/15 13:57:14;;;;;;;6.03;2.22;;;9.70;99.90;;;;;;5071081;28;20091;-79
2021/12/15 13:59:50;;;;;;;8.68;2.50;;;9.60;99.90;;;;;;5070752;28;20040;-79
2021/12/15 14:02:25;;;;;;;9.63;2.47;;;9.60;99.90;;;;;;5054103;28;20036;-79
2021/12/15 14:05:03;;;;;;;12.77;2.95;;;9.50;99.90;;;;;;5070312;28;20043;-80
2021/12/15 14:07:28;;;;;;;6.60;2.50;;;9.50;99.90;;;;;;5070437;28;20056;-79
2021/12/15 14:09:56;;;;;;;6.32;2.55;;;9.50;99.90;;;;;;5053706;28;20154;-79
2021/12/15 14:12:49;;;;;;;9.02;2.50;;;9.40;99.90;;;;;;5050209;28;20041;-80
2021/12/15 14:15:37;;;;;;;9.68;2.40;;;9.40;99.90;;;;;;5050593;28;20044;-80
2021/12/15 14:18:06;;;;;;;6.22;2.60;;;9.40;99.90;;;;;;5050572;28;20037;-79
2021/12/15 14:20:37;;;;;;;6.85;2.30;;;9.30;99.90;;;;;;5051119;28;20033;-79